首页
METAR-TAF:

METAR-TAF

机场 :

凯奇凯梅特, 匈牙利

纬度: 46-55N, 经度: 019-45E, 海拔: 113米

当前天气观测

该预报发布于20分钟前的01:15 UTC
风速2节,风向西北
温度 12°C
湿度 100%
气压 1011 hPa
能見度: 8000

METAR: LHKE 250115Z 32002KT 8000 NSC 12/12 Q1011 NOSIG RMK BLU

时间: 03:35 (01:35 UTC)

预报

该预报发布于5小时和20分钟前的20:15 UTC
预报有效从24日的 21点(UTC)到 25日的 06点(UTC)
风速3节,风向多变
能见度10公里或以上
散云层高于8300英尺
几率 40% :
短暂存在
从 24日的 23点(UTC)到 25日的 04点(UTC)
能見度: 5000
多云层高于1000英尺
轻雾

TAF: LHKE 242015Z 2421/2506 VRB03KT 9999 MIBCFG SCT083 PROB40 TEMPO 2423/2504 5000 BR BKN010

超过4000个机场的气象观测和天气预报(METAR&TAF报告)。

可查询的气象台以黄色和红色小点在地图上表示。

将鼠标移到小点上方,可查看气象台名称。

然后点击查看天气观测和预报。

如需切换地图:点击带黑十字的绿色按钮放大地图;点击带横线的绿色按钮缩小地图;或者点击绿色箭头查看邻近地区的地图。


METAR-TAF: